Alexandria, Louisiana
Current Conditions -  °F | °C
As of 2:53 PM on Tuesday 25 Nov 2014 (Local Time) from KAEX Reporting Station
Clear Clear  
Wind Chill: 57°   Ceiling: Unl
Heat Index: 57°   Visibility: 10mi
Dew Point: 32°   Wind: 8mph
Humidity: 39%   Direction: 330°NNW
Pressure: 30.19"   Gusts: NA
Location:  31.31°N, 92.44°W
Report Text: KAEX 252053Z AUTO 33007KT 10SM CLR 14/00 A3019 RMK AO2 SLP227 T01390000 56022
Loading
Personal Weather Stations






























Interactive Weather Map New forecast layout! Learn more

10-Day Weather Forecast

Advertisements
Track Severe Weather on mobile